createdAt,value
2023-06-11T00:00:50.367Z,8.79
2023-06-11T00:01:50.391Z,8.72
2023-06-11T00:02:50.518Z,8.66
2023-06-11T00:03:50.474Z,8.58
2023-06-11T00:04:50.514Z,8.30
2023-06-11T00:05:50.347Z,8.17
2023-06-11T00:06:50.357Z,8.15
2023-06-11T00:07:50.341Z,8.17
2023-06-11T00:08:50.348Z,8.17
2023-06-11T00:09:50.284Z,8.22
2023-06-11T00:10:50.295Z,8.28
2023-06-11T00:11:50.269Z,8.26
2023-06-11T00:12:50.243Z,8.30
2023-06-11T00:13:50.255Z,8.33
2023-06-11T00:14:50.287Z,8.33
2023-06-11T00:15:50.270Z,8.21
2023-06-11T00:16:50.248Z,8.15
2023-06-11T00:17:50.270Z,8.14
2023-06-11T00:18:50.211Z,8.08
2023-06-11T00:19:50.194Z,7.96
2023-06-11T00:20:50.216Z,7.84
2023-06-11T00:21:50.657Z,7.74
2023-06-11T00:22:50.193Z,7.60
2023-06-11T00:23:50.182Z,7.59
2023-06-11T00:24:50.137Z,7.66
2023-06-11T00:25:51.602Z,7.74
2023-06-11T00:26:50.150Z,7.72
2023-06-11T00:27:50.107Z,7.72
2023-06-11T00:28:50.106Z,7.62
2023-06-11T00:29:50.082Z,7.59
2023-06-11T00:30:50.071Z,7.55
2023-06-11T00:31:50.095Z,7.53
2023-06-11T00:32:50.163Z,7.50
2023-06-11T00:33:50.056Z,7.45
2023-06-11T00:34:50.040Z,7.49
2023-06-11T00:35:50.043Z,7.52
2023-06-11T00:36:50.008Z,7.52
2023-06-11T00:37:49.999Z,7.35
2023-06-11T00:38:50.030Z,7.31
2023-06-11T00:39:49.980Z,7.20
2023-06-11T00:40:50.021Z,7.13
2023-06-11T00:41:50.062Z,7.13
2023-06-11T00:42:49.909Z,6.91
2023-06-11T00:43:49.888Z,6.66
2023-06-11T00:44:50.027Z,6.43
2023-06-11T00:45:50.003Z,6.21
2023-06-11T00:46:49.921Z,6.18
2023-06-11T00:47:49.991Z,6.11
2023-06-11T00:48:49.889Z,6.11
2023-06-11T00:49:49.889Z,6.16
2023-06-11T00:50:49.893Z,6.16
2023-06-11T00:51:49.872Z,6.25
2023-06-11T00:52:49.870Z,6.35
2023-06-11T00:53:49.824Z,6.36
2023-06-11T00:54:49.843Z,6.43
2023-06-11T00:55:49.806Z,6.35
2023-06-11T00:56:49.859Z,6.18
2023-06-11T00:57:49.805Z,6.04
2023-06-11T00:58:50.246Z,5.98
2023-06-11T00:59:49.773Z,5.89
2023-06-11T01:00:49.809Z,5.75
2023-06-11T01:01:49.754Z,5.67
2023-06-11T01:02:49.821Z,5.56
2023-06-11T01:03:49.783Z,5.57
2023-06-11T01:04:49.722Z,5.56
2023-06-11T01:05:49.686Z,5.50
2023-06-11T01:06:49.625Z,5.50
2023-06-11T01:07:49.625Z,5.56
2023-06-11T01:08:49.686Z,5.63
2023-06-11T01:09:49.617Z,5.56
2023-06-11T01:10:49.594Z,5.49
2023-06-11T01:11:49.595Z,5.43
2023-06-11T01:12:49.592Z,5.49
2023-06-11T01:13:49.575Z,5.46
2023-06-11T01:14:49.640Z,5.37
2023-06-11T01:15:49.551Z,5.35
2023-06-11T01:16:49.720Z,5.40
2023-06-11T01:17:49.558Z,5.35
2023-06-11T01:18:49.546Z,5.25
2023-06-11T01:19:49.501Z,5.20
2023-06-11T01:20:49.551Z,5.10
2023-06-11T01:21:49.498Z,4.96
2023-06-11T01:22:49.481Z,4.89
2023-06-11T01:23:49.537Z,4.88
2023-06-11T01:24:49.479Z,4.84
2023-06-11T01:25:49.442Z,4.83
2023-06-11T01:26:49.494Z,4.83
2023-06-11T01:27:49.442Z,4.86
2023-06-11T01:28:49.421Z,4.88
2023-06-11T01:29:49.403Z,4.92
2023-06-11T01:30:49.417Z,4.94
2023-06-11T01:31:49.446Z,4.96
2023-06-11T01:32:49.456Z,5.01
2023-06-11T01:33:49.370Z,5.01
2023-06-11T01:34:49.357Z,5.04
2023-06-11T01:35:49.351Z,5.14
2023-06-11T01:36:49.344Z,5.25
2023-06-11T01:37:49.327Z,5.20
2023-06-11T01:38:49.369Z,5.05
2023-06-11T01:39:49.299Z,4.98
2023-06-11T01:40:49.292Z,5.02
2023-06-11T01:41:49.276Z,5.10
2023-06-11T01:42:49.283Z,5.22
2023-06-11T01:43:49.264Z,5.34
2023-06-11T01:44:49.295Z,5.32
2023-06-11T01:45:49.246Z,5.04
2023-06-11T01:46:49.319Z,4.80
2023-06-11T01:47:49.312Z,4.55
2023-06-11T01:48:49.245Z,4.33
2023-06-11T01:49:49.239Z,4.19
2023-06-11T01:50:49.283Z,4.21
2023-06-11T01:51:49.203Z,4.24
2023-06-11T01:52:49.182Z,4.33
2023-06-11T01:53:49.183Z,4.44
2023-06-11T01:54:49.180Z,4.55
2023-06-11T01:55:49.143Z,4.67
2023-06-11T01:56:49.180Z,4.76
2023-06-11T01:57:49.134Z,4.88
2023-06-11T01:58:49.108Z,4.92
2023-06-11T01:59:49.104Z,5.02
2023-06-11T02:00:49.088Z,5.13
2023-06-11T02:01:49.134Z,5.19
2023-06-11T02:02:49.339Z,5.25
2023-06-11T02:03:49.090Z,5.32
2023-06-11T02:04:49.047Z,5.34
2023-06-11T02:05:49.065Z,5.37
2023-06-11T02:06:49.050Z,5.38
2023-06-11T02:07:49.016Z,5.27
2023-06-11T02:08:49.060Z,4.89
2023-06-11T02:09:49.048Z,4.51
2023-06-11T02:10:49.005Z,4.25
2023-06-11T02:11:49.038Z,3.98
2023-06-11T02:12:48.974Z,3.85
2023-06-11T02:13:48.956Z,3.78
2023-06-11T02:14:49.271Z,3.67
2023-06-11T02:15:48.970Z,3.54
2023-06-11T02:16:49.030Z,3.52
2023-06-11T02:17:48.979Z,3.57
2023-06-11T02:18:48.912Z,3.57
2023-06-11T02:19:48.895Z,3.61
2023-06-11T02:20:48.951Z,3.75
2023-06-11T02:21:48.871Z,3.86
2023-06-11T02:22:48.874Z,3.98
2023-06-11T02:23:48.891Z,4.08
2023-06-11T02:24:48.871Z,4.22
2023-06-11T02:25:48.885Z,4.32
2023-06-11T02:26:48.865Z,4.42
2023-06-11T02:27:48.827Z,4.51
2023-06-11T02:28:48.813Z,4.51
2023-06-11T02:29:48.802Z,4.39
2023-06-11T02:30:48.798Z,4.37
2023-06-11T02:31:48.824Z,4.18
2023-06-11T02:32:48.959Z,3.88
2023-06-11T02:33:48.777Z,3.64
2023-06-11T02:34:48.764Z,3.52
2023-06-11T02:35:48.751Z,3.36
2023-06-11T02:36:48.743Z,3.31
2023-06-11T02:37:48.723Z,3.34
2023-06-11T02:38:48.744Z,3.42
2023-06-11T02:39:48.697Z,3.57
2023-06-11T02:40:48.686Z,3.67
2023-06-11T02:41:48.676Z,3.83
2023-06-11T02:42:48.670Z,3.80
2023-06-11T02:43:48.664Z,3.78
2023-06-11T02:44:48.727Z,3.78
2023-06-11T02:45:48.644Z,3.70
2023-06-11T02:46:48.618Z,3.62
2023-06-11T02:47:48.633Z,3.52
2023-06-11T02:48:48.611Z,3.42
2023-06-11T02:49:48.591Z,3.40
2023-06-11T02:50:48.679Z,3.33
2023-06-11T02:51:48.587Z,3.27
2023-06-11T02:52:48.592Z,3.24
2023-06-11T02:53:48.586Z,3.20
2023-06-11T02:54:48.581Z,3.25
2023-06-11T02:55:48.534Z,3.24
2023-06-11T02:56:48.601Z,3.23
2023-06-11T02:57:48.531Z,3.30
2023-06-11T02:58:48.562Z,3.36
2023-06-11T02:59:48.517Z,3.39
2023-06-11T03:00:48.504Z,3.42
2023-06-11T03:01:48.565Z,3.44
2023-06-11T03:02:48.518Z,3.54
2023-06-11T03:03:48.518Z,3.64
2023-06-11T03:04:48.453Z,3.72
2023-06-11T03:05:48.438Z,3.80
2023-06-11T03:06:48.437Z,3.94
2023-06-11T03:07:48.416Z,4.06
2023-06-11T03:08:48.456Z,4.08
2023-06-11T03:09:48.408Z,3.98
2023-06-11T03:10:48.508Z,3.89
2023-06-11T03:11:48.380Z,3.76
2023-06-11T03:12:48.366Z,3.72
2023-06-11T03:13:48.366Z,3.76
2023-06-11T03:14:48.427Z,3.72
2023-06-11T03:15:48.393Z,3.65
2023-06-11T03:16:48.330Z,3.61
2023-06-11T03:17:48.339Z,3.54
2023-06-11T03:18:48.306Z,3.58
2023-06-11T03:19:48.312Z,3.68
2023-06-11T03:20:48.341Z,3.79
2023-06-11T03:21:48.276Z,3.90
2023-06-11T03:22:48.286Z,3.98
2023-06-11T03:23:48.323Z,4.06
2023-06-11T03:24:48.244Z,4.16
2023-06-11T03:25:48.252Z,4.25
2023-06-11T03:26:48.628Z,4.32
2023-06-11T03:27:49.307Z,4.37
2023-06-11T03:28:48.236Z,4.43
2023-06-11T03:29:48.240Z,4.46
2023-06-11T03:30:48.192Z,4.50
2023-06-11T03:31:48.266Z,4.54
2023-06-11T03:32:48.323Z,4.57
2023-06-11T03:33:48.166Z,4.59
2023-06-11T03:34:48.136Z,4.64
2023-06-11T03:35:48.143Z,4.65
2023-06-11T03:36:48.143Z,4.67
2023-06-11T03:37:48.115Z,4.70
2023-06-11T03:38:48.139Z,4.75
2023-06-11T03:39:48.136Z,4.77
2023-06-11T03:40:48.083Z,4.79
2023-06-11T03:41:48.064Z,4.77
2023-06-11T03:42:48.074Z,4.77
2023-06-11T03:43:48.090Z,4.77
2023-06-11T03:44:48.122Z,4.77
2023-06-11T03:45:48.053Z,4.77
2023-06-11T03:46:48.100Z,4.80
2023-06-11T03:47:48.050Z,4.84
2023-06-11T03:48:48.019Z,4.89
2023-06-11T03:49:48.000Z,4.98
2023-06-11T03:50:48.026Z,4.99
2023-06-11T03:51:47.994Z,5.04
2023-06-11T03:52:47.956Z,5.07
2023-06-11T03:53:47.975Z,5.16
2023-06-11T03:54:47.929Z,5.22
2023-06-11T03:55:47.932Z,5.28
2023-06-11T03:56:47.972Z,5.37
2023-06-11T03:57:47.927Z,5.49
2023-06-11T03:58:47.901Z,5.57
2023-06-11T03:59:47.896Z,5.68
2023-06-11T04:00:47.875Z,5.78
2023-06-11T04:01:47.923Z,5.86
2023-06-11T04:02:48.060Z,5.93
2023-06-11T04:03:47.909Z,5.98
2023-06-11T04:04:47.900Z,6.00
2023-06-11T04:05:47.871Z,6.01
2023-06-11T04:06:47.851Z,6.07
2023-06-11T04:07:47.827Z,6.11
2023-06-11T04:08:47.894Z,6.14
2023-06-11T04:09:48.949Z,6.16
2023-06-11T04:10:47.831Z,6.19
2023-06-11T04:11:47.910Z,6.26
2023-06-11T04:13:09.861Z,6.26
2023-06-11T04:13:47.777Z,6.30
2023-06-11T04:14:47.782Z,6.41
2023-06-11T04:15:47.764Z,6.50
2023-06-11T04:16:47.773Z,6.54
2023-06-11T04:17:47.772Z,6.56
2023-06-11T04:18:47.711Z,6.63
2023-06-11T04:19:47.707Z,6.68
2023-06-11T04:20:47.721Z,6.72
2023-06-11T04:21:47.659Z,6.76
2023-06-11T04:22:47.684Z,6.80
2023-06-11T04:23:47.707Z,6.84
2023-06-11T04:24:47.742Z,6.95
2023-06-11T04:25:47.625Z,7.01
2023-06-11T04:26:47.777Z,7.07
2023-06-11T04:27:47.604Z,7.15
2023-06-11T04:28:47.672Z,7.20
2023-06-11T04:29:47.617Z,7.26
2023-06-11T04:30:47.573Z,7.45
2023-06-11T04:31:47.708Z,7.55
2023-06-11T04:32:47.617Z,7.63
2023-06-11T04:33:47.552Z,7.72
2023-06-11T04:34:47.575Z,7.85
2023-06-11T04:35:47.548Z,7.94
2023-06-11T04:36:47.524Z,8.10
2023-06-11T04:37:47.515Z,8.17
2023-06-11T04:38:47.523Z,8.20
2023-06-11T04:39:47.541Z,8.28
2023-06-11T04:40:47.525Z,8.32
2023-06-11T04:41:47.480Z,8.33
2023-06-11T04:42:47.503Z,8.39
2023-06-11T04:43:47.487Z,8.44
2023-06-11T04:44:47.611Z,8.47
2023-06-11T04:45:49.311Z,8.50
2023-06-11T04:46:47.494Z,8.54
2023-06-11T04:47:47.589Z,8.63
2023-06-11T04:48:47.386Z,8.79
2023-06-11T04:49:47.399Z,8.97
2023-06-11T04:50:47.424Z,9.34
2023-06-11T04:51:47.370Z,10.00
2023-06-11T04:52:47.360Z,10.62
2023-06-11T04:53:47.347Z,11.13
2023-06-11T04:54:47.328Z,11.65
2023-06-11T04:55:47.314Z,12.02
2023-06-11T04:56:47.506Z,12.16
2023-06-11T04:57:47.358Z,12.39
2023-06-11T04:58:47.431Z,12.57
2023-06-11T04:59:47.273Z,12.66
2023-06-11T05:00:47.269Z,12.89
2023-06-11T05:01:47.400Z,13.18
2023-06-11T05:02:47.316Z,13.33
2023-06-11T05:03:49.211Z,13.21
2023-06-11T05:04:47.250Z,13.46
2023-06-11T05:05:47.318Z,13.43
2023-06-11T05:06:47.252Z,13.32
2023-06-11T05:07:47.198Z,13.52
2023-06-11T05:08:47.335Z,13.58
2023-06-11T05:09:47.200Z,13.63
2023-06-11T05:10:47.183Z,13.88
2023-06-11T05:11:47.163Z,14.04
2023-06-11T05:12:47.169Z,13.91
2023-06-11T05:13:47.168Z,14.04
2023-06-11T05:14:47.182Z,14.12
2023-06-11T05:15:47.122Z,14.21
2023-06-11T05:16:47.232Z,14.24
2023-06-11T05:17:47.214Z,14.06
2023-06-11T05:18:47.149Z,14.25
2023-06-11T05:19:47.075Z,14.47
2023-06-11T05:20:47.101Z,14.68
2023-06-11T05:21:47.117Z,14.86
2023-06-11T05:22:47.048Z,14.87
2023-06-11T05:23:47.065Z,15.02
2023-06-11T05:24:47.038Z,15.03
2023-06-11T05:25:47.022Z,15.02
2023-06-11T05:26:47.049Z,14.94
2023-06-11T05:27:47.172Z,15.12
2023-06-11T05:28:46.986Z,15.19
2023-06-11T05:29:46.989Z,15.30
2023-06-11T05:30:46.981Z,15.49
2023-06-11T05:31:47.077Z,15.45
2023-06-11T05:32:47.073Z,15.46
2023-06-11T05:33:46.973Z,15.45
2023-06-11T05:34:46.958Z,15.51
2023-06-11T05:35:46.908Z,15.46
2023-06-11T05:36:46.912Z,15.56
2023-06-11T05:37:46.897Z,15.66
2023-06-11T05:38:46.909Z,15.89
2023-06-11T05:39:46.880Z,16.03
2023-06-11T05:40:46.855Z,16.26
2023-06-11T05:41:46.841Z,16.37
2023-06-11T05:42:46.872Z,16.56
2023-06-11T05:43:46.900Z,16.67
2023-06-11T05:44:46.859Z,16.75
2023-06-11T05:45:46.870Z,16.83
2023-06-11T05:46:46.967Z,16.99
2023-06-11T05:47:46.878Z,17.10
2023-06-11T05:48:46.836Z,17.15
2023-06-11T05:49:46.821Z,17.22
2023-06-11T05:50:46.784Z,17.32
2023-06-11T05:51:46.760Z,17.26
2023-06-11T05:52:46.760Z,17.29
2023-06-11T05:53:46.740Z,17.40
2023-06-11T05:54:46.731Z,17.47
2023-06-11T05:55:46.745Z,17.47
2023-06-11T05:56:46.794Z,17.47
2023-06-11T05:57:46.700Z,16.86
2023-06-11T05:58:46.666Z,16.77
2023-06-11T05:59:46.726Z,16.70
2023-06-11T06:00:46.653Z,16.75
2023-06-11T06:01:46.807Z,16.75
2023-06-11T06:02:46.809Z,16.81
2023-06-11T06:03:46.828Z,16.81
2023-06-11T06:04:46.646Z,16.80
2023-06-11T06:05:46.618Z,16.89
2023-06-11T06:06:46.625Z,16.95
2023-06-11T06:07:46.578Z,17.07
2023-06-11T06:08:46.590Z,17.18
2023-06-11T06:09:46.740Z,17.30
2023-06-11T06:10:46.563Z,17.40
2023-06-11T06:11:46.558Z,17.36
2023-06-11T06:12:46.532Z,17.22
2023-06-11T06:13:46.505Z,16.78
2023-06-11T06:14:46.559Z,16.78
2023-06-11T06:15:46.568Z,16.92
2023-06-11T06:16:46.535Z,17.00
2023-06-11T06:17:46.763Z,16.96
2023-06-11T06:18:46.473Z,17.13
2023-06-11T06:19:46.525Z,17.23
2023-06-11T06:20:46.766Z,17.38
2023-06-11T06:21:47.439Z,17.50
2023-06-11T06:22:46.539Z,17.57
2023-06-11T06:23:46.609Z,17.82
2023-06-11T06:24:46.449Z,18.03
2023-06-11T06:25:46.426Z,18.10
2023-06-11T06:26:46.439Z,18.04
2023-06-11T06:27:46.702Z,17.99
2023-06-11T06:28:46.494Z,18.09
2023-06-11T06:29:46.415Z,18.25
2023-06-11T06:30:46.457Z,18.40
2023-06-11T06:31:46.568Z,18.59
2023-06-11T06:32:46.522Z,18.82
2023-06-11T06:33:48.384Z,19.05
2023-06-11T06:34:47.261Z,19.15
2023-06-11T06:35:46.355Z,18.99
2023-06-11T06:36:46.325Z,18.91
2023-06-11T06:37:46.282Z,19.01
2023-06-11T06:38:46.317Z,19.08
2023-06-11T06:39:58.749Z,19.15
2023-06-11T06:40:46.239Z,19.25
2023-06-11T06:41:46.268Z,19.38
2023-06-11T06:42:46.194Z,19.38
2023-06-11T06:43:46.203Z,19.54
2023-06-11T06:44:46.236Z,19.69
2023-06-11T06:45:46.203Z,19.55
2023-06-11T06:46:46.189Z,19.60
2023-06-11T06:47:46.230Z,19.70
2023-06-11T06:48:46.283Z,19.78
2023-06-11T06:49:46.136Z,19.88
2023-06-11T06:50:46.202Z,20.05
2023-06-11T06:51:46.138Z,20.10
2023-06-11T06:52:46.135Z,20.18
2023-06-11T06:53:46.241Z,20.08
2023-06-11T06:54:46.109Z,20.09
2023-06-11T06:55:46.209Z,20.02
2023-06-11T06:56:46.140Z,19.88
2023-06-11T06:57:46.153Z,19.70
2023-06-11T06:58:46.079Z,19.33
2023-06-11T06:59:46.128Z,19.42
2023-06-11T07:00:47.250Z,19.57
2023-06-11T07:01:46.954Z,19.57
2023-06-11T07:02:46.215Z,19.32
2023-06-11T07:03:46.053Z,19.43
2023-06-11T07:04:46.026Z,19.72
2023-06-11T07:05:46.124Z,20.00
2023-06-11T07:06:46.038Z,20.12
2023-06-11T07:07:46.093Z,20.25
2023-06-11T07:08:46.025Z,20.49
2023-06-11T07:09:46.081Z,20.61
2023-06-11T07:10:45.930Z,20.61
2023-06-11T07:11:45.921Z,20.79
2023-06-11T07:12:45.912Z,20.93
2023-06-11T07:13:45.894Z,20.51
2023-06-11T07:14:46.010Z,20.39
2023-06-11T07:15:46.629Z,20.56
2023-06-11T07:16:46.044Z,20.58
2023-06-11T07:17:45.964Z,20.80
2023-06-11T07:18:46.001Z,21.01
2023-06-11T07:19:46.013Z,21.26
2023-06-11T07:20:45.894Z,21.42
2023-06-11T07:21:45.858Z,21.61
2023-06-11T07:22:45.818Z,21.61
2023-06-11T07:23:45.919Z,21.61
2023-06-11T07:24:45.810Z,21.60
2023-06-11T07:25:45.812Z,21.45
2023-06-11T07:26:45.834Z,21.30
2023-06-11T07:27:45.761Z,21.11
2023-06-11T07:28:45.778Z,21.19
2023-06-11T07:29:45.762Z,21.27
2023-06-11T07:30:45.738Z,21.44
2023-06-11T07:31:45.770Z,21.21
2023-06-11T07:32:45.774Z,21.11
2023-06-11T07:33:45.701Z,20.81
2023-06-11T07:34:45.722Z,20.93
2023-06-11T07:35:45.670Z,21.23
2023-06-11T07:36:45.700Z,21.51
2023-06-11T07:37:45.778Z,21.79
2023-06-11T07:38:45.672Z,22.12
2023-06-11T07:39:45.641Z,22.41
2023-06-11T07:40:45.641Z,22.68
2023-06-11T07:41:45.619Z,22.90
2023-06-11T07:42:45.624Z,23.07
2023-06-11T07:43:45.599Z,22.99
2023-06-11T07:44:45.629Z,23.08
2023-06-11T07:45:45.628Z,23.11
2023-06-11T07:46:45.591Z,23.17
2023-06-11T07:47:45.591Z,23.23
2023-06-11T07:48:45.561Z,23.20
2023-06-11T07:49:45.529Z,23.31
2023-06-11T07:50:45.564Z,23.45
2023-06-11T07:51:45.500Z,23.26
2023-06-11T07:52:45.519Z,23.45
2023-06-11T07:53:45.527Z,23.65
2023-06-11T07:54:45.497Z,23.58
2023-06-11T07:55:45.478Z,23.60
2023-06-11T07:56:45.517Z,23.68
2023-06-11T07:57:45.469Z,23.76
2023-06-11T07:58:45.432Z,22.83
2023-06-11T07:59:45.478Z,22.68
2023-06-11T08:00:45.424Z,22.35
2023-06-11T08:01:45.450Z,22.17
2023-06-11T08:02:45.505Z,21.94
2023-06-11T08:03:45.362Z,21.88
2023-06-11T08:04:45.408Z,21.82
2023-06-11T08:05:45.452Z,21.63
2023-06-11T08:06:45.447Z,21.63
2023-06-11T08:07:45.428Z,21.85
2023-06-11T08:08:45.414Z,22.17
2023-06-11T08:09:45.368Z,22.52
2023-06-11T08:10:45.429Z,22.86
2023-06-11T08:11:45.382Z,23.17
2023-06-11T08:12:45.373Z,23.47
2023-06-11T08:13:45.276Z,23.68
2023-06-11T08:14:45.330Z,23.68
2023-06-11T08:15:45.288Z,23.76
2023-06-11T08:16:45.348Z,23.92
2023-06-11T08:17:45.328Z,24.05
2023-06-11T08:18:45.371Z,24.07
2023-06-11T08:19:45.257Z,23.72
2023-06-11T08:20:45.264Z,23.90
2023-06-11T08:21:45.226Z,24.02
2023-06-11T08:22:45.197Z,24.26
2023-06-11T08:23:45.257Z,24.22
2023-06-11T08:24:45.278Z,24.42
2023-06-11T08:25:45.159Z,24.44
2023-06-11T08:26:45.173Z,23.71
2023-06-11T08:27:45.199Z,23.77
2023-06-11T08:28:45.121Z,23.65
2023-06-11T08:29:45.121Z,23.70
2023-06-11T08:30:45.173Z,23.65
2023-06-11T08:31:45.130Z,23.77
2023-06-11T08:32:45.164Z,24.00
2023-06-11T08:33:45.067Z,24.05
2023-06-11T08:34:45.077Z,24.22
2023-06-11T08:35:45.056Z,23.98
2023-06-11T08:36:45.037Z,23.49
2023-06-11T08:37:45.103Z,23.47
2023-06-11T08:38:45.055Z,23.67
2023-06-11T08:39:45.007Z,23.65
2023-06-11T08:40:45.006Z,23.26
2023-06-11T08:41:45.017Z,23.26
2023-06-11T08:42:45.001Z,22.59
2023-06-11T08:43:45.001Z,22.67
2023-06-11T08:44:45.018Z,22.72
2023-06-11T08:45:44.925Z,22.84
2023-06-11T08:46:45.069Z,23.15
2023-06-11T08:47:45.070Z,23.43
2023-06-11T08:48:44.905Z,23.62
2023-06-11T08:49:44.924Z,23.83
2023-06-11T08:50:45.024Z,24.19
2023-06-11T08:51:44.899Z,24.20
2023-06-11T08:52:44.886Z,24.23
2023-06-11T08:53:44.870Z,24.01
2023-06-11T08:54:44.845Z,23.89
2023-06-11T08:55:44.826Z,23.38
2023-06-11T08:56:44.856Z,23.05
2023-06-11T08:57:44.874Z,23.31
2023-06-11T08:58:44.822Z,23.75
2023-06-11T08:59:44.817Z,24.14
2023-06-11T09:00:48.365Z,24.50
2023-06-11T09:01:44.830Z,23.94
2023-06-11T09:02:45.026Z,22.62
2023-06-11T09:03:44.774Z,22.69
2023-06-11T09:04:44.721Z,22.77
2023-06-11T09:05:44.712Z,22.72
2023-06-11T09:06:44.698Z,22.87
2023-06-11T09:07:44.697Z,22.84
2023-06-11T09:08:44.702Z,23.04
2023-06-11T09:09:44.688Z,22.31
2023-06-11T09:10:44.670Z,22.19
2023-06-11T09:11:44.691Z,22.43
2023-06-11T09:12:44.643Z,22.82
2023-06-11T09:13:44.659Z,23.24
2023-06-11T09:14:44.695Z,23.53
2023-06-11T09:15:44.648Z,23.77
2023-06-11T09:16:44.665Z,24.02
2023-06-11T09:17:44.648Z,24.41
2023-06-11T09:18:44.625Z,24.73
2023-06-11T09:19:44.645Z,25.02
2023-06-11T09:20:44.622Z,25.10
2023-06-11T09:21:44.603Z,25.16
2023-06-11T09:22:44.570Z,25.17
2023-06-11T09:23:44.622Z,25.16
2023-06-11T09:24:44.626Z,25.27
2023-06-11T09:25:44.541Z,25.52
2023-06-11T09:26:44.570Z,25.77
2023-06-11T09:27:44.517Z,25.90
2023-06-11T09:28:44.497Z,26.04
2023-06-11T09:29:44.493Z,26.22
2023-06-11T09:30:44.477Z,26.47
2023-06-11T09:31:44.536Z,26.68
2023-06-11T09:32:44.645Z,26.73
2023-06-11T09:33:44.496Z,26.64
2023-06-11T09:34:44.443Z,26.57
2023-06-11T09:35:44.435Z,26.65
2023-06-11T09:36:44.421Z,26.77
2023-06-11T09:37:44.417Z,26.76
2023-06-11T09:38:44.464Z,26.49
2023-06-11T09:39:44.400Z,26.40
2023-06-11T09:40:44.378Z,26.44
2023-06-11T09:41:44.367Z,26.28
2023-06-11T09:42:44.357Z,26.20
2023-06-11T09:43:44.373Z,25.98
2023-06-11T09:44:44.372Z,26.08
2023-06-11T09:45:44.353Z,26.12
2023-06-11T09:46:44.310Z,26.08
2023-06-11T09:47:44.383Z,26.18
2023-06-11T09:48:44.282Z,26.32
2023-06-11T09:49:44.306Z,26.46
2023-06-11T09:50:44.317Z,26.47
2023-06-11T09:51:44.274Z,26.67
2023-06-11T09:52:44.262Z,26.80
2023-06-11T09:53:44.255Z,26.89
2023-06-11T09:54:44.227Z,26.95
2023-06-11T09:55:51.045Z,26.96
2023-06-11T09:56:45.245Z,26.95
2023-06-11T09:57:44.401Z,27.10
2023-06-11T09:58:44.199Z,26.72
2023-06-11T09:59:44.180Z,26.40
2023-06-11T10:00:44.199Z,26.52
2023-06-11T10:01:44.190Z,26.73
2023-06-11T10:02:44.264Z,26.79
2023-06-11T10:03:44.230Z,26.84
2023-06-11T10:04:44.141Z,27.06
2023-06-11T10:05:44.153Z,27.24
2023-06-11T10:06:44.132Z,27.47
2023-06-11T10:07:44.127Z,27.53
2023-06-11T10:08:44.127Z,27.64
2023-06-11T10:09:44.096Z,27.74
2023-06-11T10:10:44.083Z,27.50
2023-06-11T10:11:44.067Z,26.99
2023-06-11T10:12:44.056Z,26.80
2023-06-11T10:13:44.054Z,26.32
2023-06-11T10:14:44.061Z,26.11
2023-06-11T10:15:44.154Z,25.24
2023-06-11T10:16:44.026Z,25.27
2023-06-11T10:17:44.020Z,25.44
2023-06-11T10:18:44.008Z,25.79
2023-06-11T10:19:43.996Z,26.06
2023-06-11T10:20:44.025Z,26.31
2023-06-11T10:21:44.423Z,26.29
2023-06-11T10:22:43.951Z,26.52
2023-06-11T10:23:44.052Z,26.80
2023-06-11T10:24:43.950Z,26.91
2023-06-11T10:25:43.943Z,26.96
2023-06-11T10:26:43.950Z,27.05
2023-06-11T10:27:43.895Z,27.10
2023-06-11T10:28:43.883Z,27.17
2023-06-11T10:29:43.876Z,27.21
2023-06-11T10:30:43.856Z,27.35
2023-06-11T10:31:43.877Z,26.95
2023-06-11T10:32:43.872Z,26.09
2023-06-11T10:33:43.911Z,25.64
2023-06-11T10:34:43.912Z,25.68
2023-06-11T10:35:43.808Z,25.83
2023-06-11T10:36:43.818Z,25.02
2023-06-11T10:37:43.779Z,25.10
2023-06-11T10:38:43.798Z,24.49
2023-06-11T10:39:43.758Z,24.75
2023-06-11T10:40:43.745Z,25.13
2023-06-11T10:41:43.803Z,25.44
2023-06-11T10:42:43.725Z,25.43
2023-06-11T10:43:43.717Z,25.71
2023-06-11T10:44:43.744Z,26.09
2023-06-11T10:45:44.519Z,25.43
2023-06-11T10:46:43.751Z,24.97
2023-06-11T10:47:43.779Z,24.54
2023-06-11T10:48:43.672Z,24.59
2023-06-11T10:49:43.657Z,24.80
2023-06-11T10:50:43.690Z,25.27
2023-06-11T10:51:43.632Z,25.69
2023-06-11T10:52:43.625Z,25.67
2023-06-11T10:53:43.631Z,26.09
2023-06-11T10:54:43.604Z,25.65
2023-06-11T10:55:43.616Z,25.89
2023-06-11T10:56:43.641Z,25.91
2023-06-11T10:57:43.580Z,26.27
2023-06-11T10:58:43.584Z,26.46
2023-06-11T10:59:43.557Z,26.47
2023-06-11T11:00:43.551Z,26.67
2023-06-11T11:01:43.585Z,27.02
2023-06-11T11:02:43.636Z,26.81
2023-06-11T11:03:43.703Z,26.02
2023-06-11T11:04:43.496Z,26.04
2023-06-11T11:05:43.514Z,26.28
2023-06-11T11:06:43.495Z,25.75
2023-06-11T11:07:43.484Z,25.89
2023-06-11T11:08:43.512Z,26.17
2023-06-11T11:09:43.457Z,26.43
2023-06-11T11:10:43.437Z,26.64
2023-06-11T11:11:43.427Z,26.36
2023-06-11T11:12:43.430Z,26.12
2023-06-11T11:13:43.411Z,25.90
2023-06-11T11:14:43.422Z,26.08
2023-06-11T11:15:43.393Z,26.32
2023-06-11T11:16:43.413Z,26.49
2023-06-11T11:17:43.487Z,26.80
2023-06-11T11:18:43.360Z,27.06
2023-06-11T11:19:43.357Z,26.81
2023-06-11T11:20:43.368Z,26.84
2023-06-11T11:21:43.319Z,25.44
2023-06-11T11:22:43.317Z,24.88
2023-06-11T11:23:43.333Z,25.05
2023-06-11T11:24:43.292Z,25.31
2023-06-11T11:25:43.285Z,25.02
2023-06-11T11:26:43.314Z,25.02
2023-06-11T11:27:43.267Z,25.16
2023-06-11T11:28:43.239Z,25.61
2023-06-11T11:29:43.238Z,25.43
2023-06-11T11:30:43.236Z,25.62
2023-06-11T11:31:43.702Z,25.97
2023-06-11T11:32:43.273Z,26.01
2023-06-11T11:33:43.200Z,26.22
2023-06-11T11:34:43.203Z,26.40
2023-06-11T11:35:43.191Z,26.67
2023-06-11T11:36:43.154Z,26.94
2023-06-11T11:37:43.156Z,27.24
2023-06-11T11:38:43.179Z,26.89
2023-06-11T11:39:43.137Z,27.01
2023-06-11T11:40:43.136Z,26.46
2023-06-11T11:41:43.122Z,24.90
2023-06-11T11:42:43.103Z,24.54
2023-06-11T11:43:43.125Z,24.75
2023-06-11T11:44:43.117Z,25.19
2023-06-11T11:45:43.092Z,25.49
2023-06-11T11:46:43.321Z,25.46
2023-06-11T11:47:43.127Z,25.32
2023-06-11T11:48:43.057Z,25.71
2023-06-11T11:49:43.036Z,26.12
2023-06-11T11:50:43.058Z,25.83
2023-06-11T11:51:43.026Z,25.82
2023-06-11T11:52:43.007Z,26.04
2023-06-11T11:53:43.003Z,26.22
2023-06-11T11:54:42.986Z,26.24
2023-06-11T11:55:52.287Z,26.37
2023-06-11T11:56:44.101Z,26.74
2023-06-11T11:57:42.952Z,26.84
2023-06-11T11:58:42.952Z,27.05
2023-06-11T11:59:42.932Z,27.24
2023-06-11T12:00:42.912Z,27.46
2023-06-11T12:01:42.904Z,27.64
2023-06-11T12:02:43.087Z,27.73
2023-06-11T12:03:43.161Z,27.80
2023-06-11T12:04:42.879Z,26.98
2023-06-11T12:05:42.905Z,26.68
2023-06-11T12:06:42.884Z,26.08
2023-06-11T12:07:42.840Z,24.98
2023-06-11T12:08:42.856Z,25.12
2023-06-11T12:09:42.825Z,25.13
2023-06-11T12:10:42.809Z,25.46
2023-06-11T12:11:52.204Z,25.82
2023-06-11T12:12:43.790Z,26.15
2023-06-11T12:13:42.776Z,26.50
2023-06-11T12:14:42.911Z,26.92
2023-06-11T12:15:42.759Z,26.86
2023-06-11T12:16:42.781Z,25.67
2023-06-11T12:17:42.776Z,25.54
2023-06-11T12:18:42.734Z,25.74
2023-06-11T12:19:42.722Z,25.98
2023-06-11T12:20:42.737Z,26.05
2023-06-11T12:21:42.702Z,25.94
2023-06-11T12:22:42.683Z,25.65
2023-06-11T12:23:42.696Z,25.91
2023-06-11T12:24:42.719Z,26.20
2023-06-11T12:25:42.664Z,26.50
2023-06-11T12:26:43.522Z,26.81
2023-06-11T12:27:42.642Z,27.09
2023-06-11T12:28:42.635Z,27.39
2023-06-11T12:29:42.620Z,27.53
2023-06-11T12:30:42.603Z,27.58
2023-06-11T12:31:42.611Z,27.77
2023-06-11T12:32:42.717Z,27.59
2023-06-11T12:33:42.593Z,27.79
2023-06-11T12:34:42.569Z,27.38
2023-06-11T12:35:42.550Z,27.33
2023-06-11T12:36:42.559Z,26.96
2023-06-11T12:37:42.533Z,26.98
2023-06-11T12:38:42.554Z,26.80
2023-06-11T12:39:42.518Z,26.58
2023-06-11T12:40:42.495Z,26.80
2023-06-11T12:41:42.498Z,26.80
2023-06-11T12:42:42.484Z,26.68
2023-06-11T12:43:42.452Z,26.89
2023-06-11T12:44:42.490Z,26.73
2023-06-11T12:45:42.517Z,26.89
2023-06-11T12:46:42.462Z,27.11
2023-06-11T12:47:42.449Z,27.29
2023-06-11T12:48:42.414Z,26.59
2023-06-11T12:49:42.400Z,26.24
2023-06-11T12:50:42.425Z,26.22
2023-06-11T12:51:42.396Z,26.46
2023-06-11T12:52:42.369Z,26.77
2023-06-11T12:53:42.372Z,26.49
2023-06-11T12:54:42.350Z,26.25
2023-06-11T12:55:42.346Z,26.29
2023-06-11T12:56:42.365Z,25.98
2023-06-11T12:57:42.322Z,25.87
2023-06-11T12:58:42.317Z,26.15
2023-06-11T12:59:42.302Z,26.46
2023-06-11T13:00:42.294Z,26.81
2023-06-11T13:01:42.300Z,27.21
2023-06-11T13:02:42.365Z,27.02